createdAt,value
2024-02-16T00:04:46.226Z,12.2
2024-02-16T00:20:11.788Z,12.2
2024-02-16T00:35:37.132Z,12.2
2024-02-16T00:51:02.048Z,12.1
2024-02-16T01:06:27.239Z,12.1
2024-02-16T01:21:52.646Z,12
2024-02-16T01:37:17.451Z,12
2024-02-16T01:52:42.584Z,12
2024-02-16T02:08:07.559Z,11.9
2024-02-16T02:23:32.465Z,11.9
2024-02-16T02:38:57.866Z,11.9
2024-02-16T02:54:23.699Z,11.9
2024-02-16T03:09:49.055Z,11.9
2024-02-16T03:25:13.480Z,12
2024-02-16T03:40:38.676Z,12.1
2024-02-16T03:56:04.415Z,12.1
2024-02-16T04:11:29.538Z,12.1
2024-02-16T04:26:54.868Z,11.9
2024-02-16T04:42:20.164Z,11.9
2024-02-16T04:57:44.931Z,11.9
2024-02-16T05:13:10.206Z,12
2024-02-16T05:28:34.992Z,11.9
2024-02-16T05:43:59.856Z,11.9
2024-02-16T05:59:24.676Z,11.9
2024-02-16T06:14:49.466Z,11.9
2024-02-16T06:30:15.089Z,11.9
2024-02-16T06:45:40.658Z,11.9
2024-02-16T07:01:06.414Z,12
2024-02-16T07:16:31.650Z,11.9
2024-02-16T07:31:56.350Z,11.9
2024-02-16T07:47:21.072Z,12.1
2024-02-16T08:02:46.482Z,12.5
2024-02-16T08:18:12.532Z,12.8
2024-02-16T08:33:38.616Z,13.1
2024-02-16T08:49:04.368Z,13.4
2024-02-16T09:04:30.820Z,13.5
2024-02-16T09:19:55.875Z,13.6
2024-02-16T09:35:21.074Z,13.7
2024-02-16T09:50:46.837Z,13.9
2024-02-16T10:06:13.204Z,14.2
2024-02-16T10:21:39.298Z,14.4
2024-02-16T10:37:04.938Z,14.6
2024-02-16T10:52:29.749Z,14.8
2024-02-16T11:07:54.725Z,15
2024-02-16T11:23:19.490Z,15.2
2024-02-16T11:38:44.956Z,15.4
2024-02-16T11:54:10.131Z,15.9
2024-02-16T12:09:36.536Z,16.1
2024-02-16T12:25:03.731Z,16.2
2024-02-16T12:40:30.218Z,16.3
2024-02-16T12:55:55.323Z,16.1
2024-02-16T13:11:19.659Z,16
2024-02-16T13:26:44.993Z,15.8
2024-02-16T13:42:09.541Z,15.8
2024-02-16T13:57:34.539Z,15.7
2024-02-16T14:13:00.084Z,15.6
2024-02-16T14:28:24.707Z,15.5
2024-02-16T14:43:49.664Z,15.4
2024-02-16T14:59:14.453Z,15.4
2024-02-16T15:14:39.743Z,15.3
2024-02-16T15:30:04.396Z,15.1
2024-02-16T15:45:29.545Z,14.9
2024-02-16T16:00:54.658Z,14.4
2024-02-16T16:16:19.506Z,14.1
2024-02-16T16:31:44.722Z,13.9
2024-02-16T16:47:09.340Z,13.9
2024-02-16T17:02:34.668Z,13.8
2024-02-16T17:17:59.489Z,13.7
2024-02-16T17:33:25.878Z,13.6
2024-02-16T17:48:51.595Z,13.6
2024-02-16T18:04:17.492Z,13.5
2024-02-16T18:19:42.748Z,13.5
2024-02-16T18:35:08.185Z,13.4
2024-02-16T18:50:33.964Z,13.3
2024-02-16T19:05:59.258Z,13.2
2024-02-16T19:21:24.297Z,13.1
2024-02-16T19:36:49.597Z,12.9
2024-02-16T19:52:15.179Z,12.8
2024-02-16T20:07:40.129Z,12.7
2024-02-16T20:23:07.204Z,12.6
2024-02-16T20:38:32.850Z,12.5
2024-02-16T20:53:57.750Z,12.3
2024-02-16T21:09:22.344Z,12.2
2024-02-16T21:24:47.629Z,12.2
2024-02-16T21:40:12.610Z,12.2
2024-02-16T21:55:37.765Z,12.2
2024-02-16T22:11:02.679Z,12.2
2024-02-16T22:26:27.907Z,12.2
2024-02-16T22:41:53.149Z,12.1
2024-02-16T22:57:18.122Z,12
2024-02-16T23:12:43.052Z,11.9
2024-02-16T23:28:08.397Z,11.8
2024-02-16T23:43:33.249Z,11.9
2024-02-16T23:59:02.867Z,11.8
